Time;durP1;ratioP1;P1;durP2;ratioP2;P2;SDS_P1;SDS_P2;PMS_P1;PMS_P2;Temp;Humidity;BMP_temperature;BMP_pressure;BME280_temperature;BME280_humidity;BME280_pressure;Samples;Min_cycle;Max_cycle;Signal;HPM_P1;HPM_P2
2024/03/06 00:02:45;;;;;;;2.08;1.92;;;;;;;6.45;61.54;94892.59;6216310;23;20019;-88
2024/03/06 00:05:10;;;;;;;2.20;2.00;;;;;;;5.53;62.86;94902.78;6217863;23;20004;-87
2024/03/06 00:07:36;;;;;;;2.63;2.30;;;;;;;4.88;64.91;94914.31;6192642;23;20004;-86
2024/03/06 00:10:01;;;;;;;3.42;1.90;;;;;;;5.24;63.62;94914.25;6218187;23;20043;-87
2024/03/06 00:12:27;;;;;;;2.28;2.08;;;;;;;5.16;64.40;94921.09;6217910;23;20008;-87
2024/03/06 01:06:15;;;;;;;2.90;2.40;;;;;;;4.35;65.11;94958.13;6245074;22;20018;-88
2024/03/06 01:18:51;;;;;;;1.98;1.67;;;;;;;4.98;62.92;94945.16;6246547;22;20012;-87
2024/03/06 01:21:17;;;;;;;2.08;1.75;;;;;;;4.80;63.55;94941.81;6219673;23;20038;-86
2024/03/06 01:23:43;;;;;;;2.03;1.60;;;;;;;4.80;63.94;94962.41;6194153;23;20004;-87
2024/03/06 01:26:08;;;;;;;1.70;1.48;;;;;;;5.02;63.10;94954.19;6219999;23;20000;-86
2024/03/06 01:46:26;;;;;;;1.77;1.45;;;;;;;4.45;64.04;94958.84;6215381;23;20021;-87
2024/03/06 01:48:51;;;;;;;2.08;1.60;;;;;;;4.84;63.39;94974.03;6164515;23;20016;-88
2024/03/06 01:51:17;;;;;;;1.80;1.40;;;;;;;4.38;64.56;94953.50;6189219;23;20077;-87
2024/03/06 01:53:42;;;;;;;2.42;1.70;;;;;;;4.61;64.47;94961.59;6189365;23;20005;-87
2024/03/06 01:56:11;;;;;;;1.80;1.52;;;;;;;4.01;65.75;94959.53;6164536;23;20012;-88
2024/03/06 01:58:39;;;;;;;2.17;1.60;;;;;;;4.06;66.58;94953.97;6164967;23;20009;-87
2024/03/06 02:01:04;;;;;;;1.92;1.50;;;;;;;4.45;65.61;94944.22;6188831;23;20009;-87
2024/03/06 02:03:32;;;;;;;2.00;1.40;;;;;;;4.66;63.98;94956.00;6164766;23;20070;-87
2024/03/06 02:39:30;;;;;;;1.15;0.80;;;;;;;4.13;66.31;94954.97;6137218;23;20063;-86
2024/03/06 02:41:58;;;;;;;1.10;0.80;;;;;;;4.33;65.07;94947.16;6134448;23;20017;-87
2024/03/06 02:44:23;;;;;;;0.98;0.70;;;;;;;4.54;65.03;94968.28;6159000;23;20095;-87
2024/03/06 02:46:49;;;;;;;0.90;0.70;;;;;;;4.65;64.22;94962.91;6158810;23;20095;-86
2024/03/06 02:49:16;;;;;;;0.55;0.52;;;;;;;5.21;62.70;94960.13;6158787;23;20028;-86
2024/03/06 03:04:18;;;;;;;0.40;0.40;;;;;;;4.90;63.48;94958.78;6217572;22;20027;-85
2024/03/06 03:10:07;;;;;;;0.55;0.50;;;;;;;4.42;64.19;94966.91;6217744;23;20025;-86
2024/03/06 03:17:46;;;;;;;0.70;0.55;;;;;;;4.75;64.22;94962.03;6214511;22;20031;-87
2024/03/06 03:20:12;;;;;;;0.80;0.55;;;;;;;4.59;64.52;94976.41;6164164;23;20012;-86
2024/03/06 03:22:39;;;;;;;0.68;0.68;;;;;;;4.82;63.79;94970.81;6188889;23;20012;-86
2024/03/06 03:25:12;;;;;;;0.50;0.40;;;;;;;4.86;63.02;94972.13;6189072;23;20047;-86
2024/03/06 03:30:06;;;;;;;0.60;0.50;;;;;;;4.90;63.74;94968.28;6214028;22;20115;-85
2024/03/06 03:32:35;;;;;;;0.47;0.40;;;;;;;4.85;63.89;94973.06;6163381;23;20009;-86
2024/03/06 03:35:01;;;;;;;0.50;0.40;;;;;;;4.84;63.64;94958.59;6189126;23;20008;-86
2024/03/06 03:55:25;;;;;;;0.70;0.60;;;;;;;4.95;63.03;94970.41;6183929;23;20028;-87
2024/03/06 03:57:52;;;;;;;0.73;0.60;;;;;;;5.01;62.91;94969.84;6158521;23;20072;-86
2024/03/06 04:00:18;;;;;;;1.55;0.38;;;;;;;5.43;61.22;94993.19;6158244;23;20005;-87
2024/03/06 04:02:43;;;;;;;0.85;0.50;;;;;;;5.73;60.51;94988.53;6157996;23;20009;-86
2024/03/06 04:15:09;;;;;;;0.32;0.30;;;;;;;4.68;64.13;94972.13;6216357;23;20013;-86
2024/03/06 04:17:36;;;;;;;0.50;0.30;;;;;;;4.44;64.71;94967.56;6218071;23;20034;-86
2024/03/06 04:20:02;;;;;;;0.40;0.30;;;;;;;4.69;63.75;94981.47;6192620;23;20012;-86
2024/03/06 04:22:31;;;;;;;0.30;0.30;;;;;;;4.86;63.58;94993.53;6192852;23;20007;-86
2024/03/06 04:24:58;;;;;;;0.40;0.30;;;;;;;4.74;63.70;94970.72;6192645;23;20012;-87
2024/03/06 04:27:24;;;;;;;0.90;0.30;;;;;;;4.68;64.83;94980.66;6168558;23;20046;-86
2024/03/06 04:29:53;;;;;;;0.43;0.40;;;;;;;4.94;63.23;94984.28;6192845;23;20012;-86
2024/03/06 04:32:18;;;;;;;0.30;0.30;;;;;;;5.00;63.05;94989.63;6193294;23;20004;-86
2024/03/06 04:34:44;;;;;;;0.63;0.22;;;;;;;4.93;63.45;94991.19;6217740;23;20015;-86
2024/03/06 04:37:12;;;;;;;0.25;0.20;;;;;;;4.99;63.57;94989.78;6192984;23;20004;-87
2024/03/06 04:39:38;;;;;;;0.50;0.25;;;;;;;4.95;63.22;94981.56;6218241;23;20011;-87
2024/03/06 04:42:03;;;;;;;0.35;0.30;;;;;;;5.36;62.11;95002.47;6192637;23;20008;-87
2024/03/06 04:44:29;;;;;;;0.35;0.30;;;;;;;5.38;61.60;94997.97;6168499;23;20008;-86
2024/03/06 04:46:54;;;;;;;0.20;0.20;;;;;;;5.13;62.65;94993.59;6212449;23;20047;-87
2024/03/06 04:49:20;;;;;;;0.30;0.30;;;;;;;5.08;63.04;95002.59;6222300;23;20008;-87
2024/03/06 04:51:45;;;;;;;0.30;0.30;;;;;;;5.05;62.96;95013.19;6187518;23;20066;-88
2024/03/06 04:54:10;;;;;;;1.30;0.30;;;;;;;5.03;63.33;95015.13;6212550;23;20012;-86
2024/03/06 04:56:36;;;;;;;0.70;0.30;;;;;;;4.92;63.73;95015.34;6212621;23;20004;-87
2024/03/06 05:01:41;;;;;;;0.50;0.32;;;;;;;5.07;62.66;95010.47;6213290;23;20017;-87
2024/03/06 05:04:06;;;;;;;0.30;0.30;;;;;;;5.04;63.45;95015.91;6187264;23;20012;-86
2024/03/06 05:11:42;;;;;;;0.40;0.35;;;;;;;4.95;63.68;95021.94;6190373;23;20016;-86
2024/03/06 05:16:43;;;;;;;0.30;0.30;;;;;;;5.24;62.22;95014.00;6244162;23;20012;-87
2024/03/06 05:19:10;;;;;;;0.30;0.30;;;;;;;5.31;62.79;95022.72;6193097;23;20007;-87
2024/03/06 05:21:36;;;;;;;0.20;0.20;;;;;;;5.32;62.09;95029.53;6217960;23;20007;-88
2024/03/06 05:24:04;;;;;;;0.30;0.30;;;;;;;5.23;62.60;95020.91;6217951;23;20014;-86
2024/03/06 05:26:30;;;;;;;0.55;0.50;;;;;;;5.28;62.52;95033.38;6193292;23;20012;-87
2024/03/06 05:31:21;;;;;;;0.63;0.50;;;;;;;5.06;63.38;95039.78;6243219;22;20038;-86
2024/03/06 05:33:48;;;;;;;0.30;0.30;;;;;;;5.09;63.97;95049.81;6194458;23;20241;-86
2024/03/06 05:36:14;;;;;;;0.40;0.35;;;;;;;5.02;63.01;95047.00;6219423;23;20000;-86
2024/03/06 05:38:43;;;;;;;0.50;0.40;;;;;;;5.17;62.68;95051.66;6194335;23;20048;-86
2024/03/06 05:41:09;;;;;;;0.30;0.30;;;;;;;5.28;62.45;95048.84;6195418;23;20442;-87
2024/03/06 05:53:46;;;;;;;0.90;0.60;;;;;;;4.91;63.82;95057.50;6245019;23;20078;-87
2024/03/06 05:56:11;;;;;;;0.70;0.50;;;;;;;4.86;63.58;95064.91;6219189;23;20004;-86
2024/03/06 05:58:37;;;;;;;0.77;0.60;;;;;;;4.85;63.46;95074.38;6193782;23;19996;-86
2024/03/06 06:01:05;;;;;;;1.80;0.70;;;;;;;4.08;65.87;95060.16;6194088;23;20099;-87
2024/03/06 06:03:31;;;;;;;1.23;0.80;;;;;;;4.67;64.56;95068.41;6218948;23;19996;-87
2024/03/06 06:05:58;;;;;;;1.63;0.70;;;;;;;4.92;64.08;95069.47;6194146;23;20011;-85
2024/03/06 06:08:24;;;;;;;1.02;0.73;;;;;;;4.76;64.55;95079.59;6194467;23;20011;-86
2024/03/06 06:18:25;;;;;;;1.00;0.70;;;;;;;4.78;63.69;95080.25;6244523;22;20035;-86
2024/03/06 06:20:50;;;;;;;0.63;0.50;;;;;;;5.03;62.48;95065.88;6194140;23;20008;-86
2024/03/06 06:23:18;;;;;;;0.60;0.57;;;;;;;5.11;63.22;95081.41;6193825;23;20012;-86
2024/03/06 06:25:44;;;;;;;2.20;0.70;;;;;;;5.18;62.31;95073.88;6193728;23;20050;-86
2024/03/06 06:28:10;;;;;;;0.98;0.60;;;;;;;5.47;61.69;95092.50;6192393;23;20008;-86
2024/03/06 06:33:01;;;;;;;1.10;0.85;;;;;;;5.40;61.41;95077.78;6181858;23;20024;-86
2024/03/06 06:35:27;;;;;;;0.80;0.70;;;;;;;5.13;62.23;95096.72;6134224;23;20095;-86
2024/03/06 06:37:52;;;;;;;1.90;1.10;;;;;;;5.22;62.20;95085.53;6134475;23;20025;-86
2024/03/06 06:40:19;;;;;;;1.38;0.95;;;;;;;5.26;62.27;95103.13;6159316;23;20013;-87
2024/03/06 06:42:49;;;;;;;0.90;0.70;;;;;;;5.34;61.80;95104.97;6158895;23;20049;-86
2024/03/06 06:47:53;;;;;;;0.77;0.63;;;;;;;5.33;61.50;95100.78;6217101;23;20020;-86
2024/03/06 06:50:23;;;;;;;1.27;0.80;;;;;;;5.31;61.83;95115.56;6193547;23;20016;-86
2024/03/06 06:52:48;;;;;;;0.47;0.45;;;;;;;5.03;62.72;95104.53;6218643;23;20043;-86
2024/03/06 07:00:18;;;;;;;0.70;0.70;;;;;;;5.01;63.13;95124.50;6244052;22;20047;-87
2024/03/06 07:02:46;;;;;;;0.93;0.63;;;;;;;5.17;62.54;95118.69;6218465;23;20003;-87
2024/03/06 07:05:12;;;;;;;0.57;0.57;;;;;;;5.29;62.03;95114.91;6218297;23;20035;-86
2024/03/06 07:10:13;;;;;;;0.90;0.60;;;;;;;5.17;62.85;95119.47;6244234;23;20082;-86
2024/03/06 07:12:42;;;;;;;1.27;0.85;;;;;;;4.94;63.30;95134.56;6170150;23;20020;-86
2024/03/06 07:15:11;;;;;;;1.48;1.10;;;;;;;4.95;64.13;95136.19;6193430;23;20012;-86
2024/03/06 07:17:36;;;;;;;1.30;1.10;;;;;;;5.23;62.79;95141.28;6193750;23;20039;-86
2024/03/06 07:30:13;;;;;;;1.10;0.75;;;;;;;5.48;62.17;95132.00;6243434;23;20024;-86
2024/03/06 07:35:05;;;;;;;1.33;0.90;;;;;;;5.41;61.81;95129.22;6243358;22;20028;-86
2024/03/06 07:37:30;;;;;;;1.02;0.90;;;;;;;5.36;62.87;95144.31;6168063;23;20015;-86
2024/03/06 07:39:57;;;;;;;0.95;0.82;;;;;;;5.47;62.19;95122.66;6218384;23;20004;-86
2024/03/06 07:42:22;;;;;;;1.52;1.20;;;;;;;5.32;63.14;95137.84;6192909;23;20083;-86
2024/03/06 07:44:49;;;;;;;1.35;0.98;;;;;;;5.33;62.54;95128.31;6193170;23;20043;-86
2024/03/06 07:47:14;;;;;;;1.25;0.93;;;;;;;5.42;62.32;95130.03;6243276;22;20020;-86
2024/03/06 07:49:40;;;;;;;1.58;1.02;;;;;;;5.46;62.68;95132.19;6168257;23;20054;-86
2024/03/06 07:52:09;;;;;;;2.17;1.98;;;;;;;5.56;62.12;95142.41;6217585;23;20004;-86
2024/03/06 07:54:34;;;;;;;3.13;1.67;;;;;;;5.68;62.10;95146.38;6192797;23;20008;-86
2024/03/06 07:56:59;;;;;;;1.73;1.30;;;;;;;5.55;62.10;95132.25;6192854;23;20008;-86
2024/03/06 07:59:25;;;;;;;1.67;1.25;;;;;;;5.66;62.09;95150.88;6217944;23;20071;-86
2024/03/06 08:07:01;;;;;;;2.42;1.55;;;;;;;5.68;62.18;95151.53;6249672;22;20097;-87
2024/03/06 08:09:28;;;;;;;1.73;1.30;;;;;;;5.82;62.01;95165.66;6167599;23;20008;-87
2024/03/06 08:11:54;;;;;;;1.92;1.10;;;;;;;5.59;63.19;95174.84;6193491;23;20095;-86
2024/03/06 08:14:20;;;;;;;2.22;1.42;;;;;;;5.55;63.26;95174.31;6192755;23;20076;-87
2024/03/06 08:16:45;;;;;;;2.97;1.48;;;;;;;5.48;63.28;95165.53;6167781;23;20059;-86
2024/03/06 08:19:11;;;;;;;3.63;1.50;;;;;;;5.41;63.51;95177.44;6192784;23;20027;-86
2024/03/06 08:21:38;;;;;;;2.10;1.65;;;;;;;5.63;62.93;95178.75;6211793;23;20020;-86
2024/03/06 08:24:04;;;;;;;2.90;1.77;;;;;;;5.69;62.89;95183.31;6187803;23;20012;-86
2024/03/06 08:26:32;;;;;;;2.85;1.50;;;;;;;5.66;63.00;95175.88;6162678;23;20020;-85
2024/03/06 08:28:58;;;;;;;2.90;1.70;;;;;;;5.86;62.32;95184.25;6187490;23;20090;-87
2024/03/06 08:31:27;;;;;;;1.92;1.38;;;;;;;5.57;62.69;95179.34;6212638;23;20013;-86
2024/03/06 08:33:52;;;;;;;2.63;1.65;;;;;;;5.71;62.73;95178.81;6187371;23;20001;-86
2024/03/06 08:36:19;;;;;;;2.20;1.50;;;;;;;5.86;61.91;95187.66;6211482;23;20023;-87
2024/03/06 08:38:47;;;;;;;2.03;1.33;;;;;;;5.90;61.98;95182.19;6163114;23;20013;-86
2024/03/06 08:41:13;;;;;;;1.70;1.23;;;;;;;5.71;62.95;95198.66;6188106;23;20028;-86
2024/03/06 08:43:38;;;;;;;1.75;1.02;;;;;;;5.61;62.65;95189.19;6162767;23;20013;-86
2024/03/06 08:46:04;;;;;;;2.03;1.20;;;;;;;5.71;62.29;95178.81;6187621;23;20013;-86
2024/03/06 09:02:38;;;;;;;1.70;1.27;;;;;;;6.03;61.16;95223.94;6243709;23;20031;-86
2024/03/06 09:05:05;;;;;;;2.20;1.58;;;;;;;5.67;62.66;95226.50;6192354;23;20020;-86
2024/03/06 09:07:31;;;;;;;2.88;1.77;;;;;;;5.97;61.70;95230.53;6218100;23;20011;-86
2024/03/06 09:09:56;;;;;;;2.45;1.67;;;;;;;5.78;62.18;95217.75;6219401;23;20000;-85
2024/03/06 09:12:22;;;;;;;2.70;1.90;;;;;;;5.88;62.00;95229.63;6194101;23;20089;-86
2024/03/06 09:14:47;;;;;;;2.22;1.83;;;;;;;5.67;62.73;95226.50;6194333;23;20101;-86
2024/03/06 09:17:14;;;;;;;3.53;1.98;;;;;;;5.79;62.56;95232.28;6219312;23;20069;-86
2024/03/06 09:22:05;;;;;;;2.15;1.65;;;;;;;5.52;62.48;95225.41;6246165;22;20031;-86
2024/03/06 09:24:31;;;;;;;2.90;2.17;;;;;;;5.54;62.77;95219.16;6243753;23;20000;-86
2024/03/06 09:26:56;;;;;;;2.97;2.05;;;;;;;5.99;61.81;95227.78;6194348;23;20068;-86
2024/03/06 09:29:25;;;;;;;3.55;2.50;;;;;;;6.02;61.50;95224.94;6169453;23;20024;-85
2024/03/06 09:31:50;;;;;;;3.75;2.67;;;;;;;6.02;62.26;95236.06;6219612;23;20008;-87
2024/03/06 09:34:16;;;;;;;3.10;2.17;;;;;;;5.85;62.92;95229.91;6245037;22;20071;-86
2024/03/06 09:36:49;;;;;;;3.80;2.38;;;;;;;5.88;62.00;95227.03;6219039;23;20087;-86
2024/03/06 09:39:22;;;;;;;3.90;2.45;;;;;;;6.30;61.13;95233.34;6218799;23;20000;-86
2024/03/06 09:41:51;;;;;;;2.92;2.08;;;;;;;6.45;60.48;95239.63;6219212;23;20008;-86
2024/03/06 09:44:18;;;;;;;2.67;1.95;;;;;;;6.53;59.85;95238.88;6219084;23;20087;-86
2024/03/06 09:49:19;;;;;;;2.63;1.98;;;;;;;6.38;60.07;95222.28;6245101;22;20131;-86
2024/03/06 09:51:50;;;;;;;3.05;2.10;;;;;;;6.46;60.04;95232.66;6219173;23;20095;-86
2024/03/06 09:54:16;;;;;;;3.55;2.40;;;;;;;6.39;60.98;95236.81;6194635;23;20047;-86
2024/03/06 09:56:48;;;;;;;3.95;2.42;;;;;;;6.31;61.08;95232.41;6219090;23;20000;-86
2024/03/06 09:59:16;;;;;;;3.67;2.40;;;;;;;6.32;61.17;95231.47;6218935;23;20004;-86
2024/03/06 10:01:55;;;;;;;2.45;2.05;;;;;;;6.26;61.31;95226.88;6244055;23;20087;-86
2024/03/06 10:04:28;;;;;;;3.67;2.70;;;;;;;6.29;61.07;95228.34;6218735;23;20000;-86
2024/03/06 10:06:56;;;;;;;3.55;2.63;;;;;;;6.46;61.51;95237.84;6218809;23;20011;-86
2024/03/06 10:14:23;;;;;;;5.30;3.50;;;;;;;6.50;61.21;95239.16;6244304;22;20032;-86
2024/03/06 10:16:56;;;;;;;4.35;2.90;;;;;;;6.58;59.44;95233.22;6218955;23;20012;-86
2024/03/06 10:19:23;;;;;;;7.05;3.40;;;;;;;6.61;60.36;95238.91;6218238;23;20016;-86
2024/03/06 10:21:50;;;;;;;4.05;2.88;;;;;;;6.30;61.55;95229.97;6193883;23;20008;-86
2024/03/06 10:24:29;;;;;;;3.65;2.80;;;;;;;6.32;61.53;95246.13;6218750;23;20008;-86
2024/03/06 10:34:30;;;;;;;4.18;3.30;;;;;;;6.38;61.18;95242.97;6244174;23;20024;-86
2024/03/06 10:36:58;;;;;;;3.70;3.08;;;;;;;6.56;60.48;95251.47;6168441;23;20015;-86
2024/03/06 10:39:24;;;;;;;4.05;3.17;;;;;;;6.71;59.98;95264.63;6218122;23;20054;-86
2024/03/06 10:41:55;;;;;;;4.47;3.10;;;;;;;6.79;59.23;95271.63;6218792;23;20409;-86
2024/03/06 10:44:26;;;;;;;;;;;;;;;6.26;59.82;95266.44;6194443;23;20031;-86
2024/03/06 10:46:57;;;;;;;4.15;3.17;;;;;;;6.44;60.13;95276.75;6218417;23;19907;-85
2024/03/06 10:57:04;;;;;;;7.75;5.32;;;;;;;6.10;61.63;95268.88;6246274;22;20028;-86
2024/03/06 10:59:30;;;;;;;;;;;;;;;5.71;63.59;95279.44;6193815;23;20012;-87
2024/03/06 11:04:25;;;;;;;5.65;4.40;;;;;;;5.91;62.56;95276.75;6244834;22;20024;-86
2024/03/06 11:06:50;;;;;;;6.78;4.30;;;;;;;6.18;61.10;95266.34;6243381;23;20004;-86
2024/03/06 11:09:16;;;;;;;5.53;4.18;;;;;;;5.97;62.71;95282.16;6193073;23;20066;-87
2024/03/06 11:11:51;;;;;;;6.32;4.53;;;;;;;5.81;62.83;95285.38;6193414;23;20004;-86
2024/03/06 11:17:10;;;;;;;5.55;4.00;;;;;;;6.10;60.51;95281.00;6243606;22;20046;-86
2024/03/06 11:20:00;;;;;;;5.68;4.03;;;;;;;5.98;61.80;95283.78;6218312;23;20012;-86
2024/03/06 11:23:07;;;;;;;5.22;3.58;;;;;;;5.91;61.54;95280.13;6218061;23;20004;-86
2024/03/06 11:25:53;;;;;;;5.13;3.58;;;;;;;6.00;61.74;95278.50;6217976;23;20004;-86
2024/03/06 11:28:23;;;;;;;3.00;2.45;;;;;;;5.96;61.35;95269.38;6217854;23;20008;-86
2024/03/06 11:31:13;;;;;;;2.30;2.10;;;;;;;5.81;61.71;95277.63;6192831;23;20004;-86
2024/03/06 11:33:41;;;;;;;4.55;3.65;;;;;;;6.23;61.31;95260.75;6217679;23;20012;-88
2024/03/06 11:36:28;;;;;;;4.15;3.60;;;;;;;6.56;60.18;95268.75;6217687;23;20004;-86
2024/03/06 11:41:26;;;;;;;3.78;2.83;;;;;;;6.63;59.05;95262.81;6245260;22;20023;-87
2024/03/06 11:43:55;;;;;;;4.15;3.00;;;;;;;6.66;58.77;95272.03;6217818;23;20018;-86
2024/03/06 11:46:46;;;;;;;3.20;2.70;;;;;;;6.19;59.65;95275.75;6217537;23;20008;-86
2024/03/06 11:49:23;;;;;;;3.20;2.65;;;;;;;6.03;62.08;95265.25;6217827;23;20062;-86
2024/03/06 11:51:53;;;;;;;3.60;2.58;;;;;;;6.34;61.34;95268.28;6217919;23;20004;-86
2024/03/06 12:53:09;;;;;;;2.40;2.20;;;;;;;6.11;62.10;95236.13;6137803;23;20057;-86
2024/03/06 12:55:35;;;;;;;3.00;2.63;;;;;;;6.32;60.89;95257.28;6135819;23;20017;-86
2024/03/06 12:58:02;;;;;;;3.20;2.30;;;;;;;6.25;61.33;95257.06;6135599;23;20016;-87
2024/03/06 13:00:27;;;;;;;3.30;2.40;;;;;;;6.20;61.93;95267.03;6159772;23;19997;-87
2024/03/06 13:41:30;;;;;;;3.63;3.30;;;;;;;5.76;62.36;95258.38;6215490;22;20016;-86
2024/03/06 13:43:56;;;;;;;4.47;3.67;;;;;;;5.75;62.08;95252.41;6140190;23;20012;-87
2024/03/06 14:24:39;;;;;;;6.55;4.95;;;;;;;5.71;63.19;95287.19;6245237;23;20024;-87
2024/03/06 14:27:06;;;;;;;7.57;5.05;;;;;;;5.63;63.01;95277.59;6194371;23;20114;-87
2024/03/06 14:29:31;;;;;;;4.68;4.18;;;;;;;5.58;63.05;95266.91;6218745;23;20011;-87
2024/03/06 14:50:05;;;;;;;1.55;1.25;;;;;;;4.82;65.40;95272.28;6186839;23;20031;-87
2024/03/06 14:52:30;;;;;;;1.75;1.30;;;;;;;5.24;64.21;95284.75;6159045;23;20075;-87
2024/03/06 14:54:56;;;;;;;1.38;1.10;;;;;;;4.98;63.95;95262.19;6134346;23;20020;-86
2024/03/06 14:57:23;;;;;;;0.70;0.70;;;;;;;4.88;64.51;95262.22;6183527;23;20012;-86
2024/03/06 15:07:24;;;;;;;1.20;0.98;;;;;;;5.84;62.23;95269.56;6186339;23;20071;-86
2024/03/06 15:09:50;;;;;;;1.00;0.90;;;;;;;6.12;60.88;95269.53;6139116;23;20017;-86
2024/03/06 15:12:15;;;;;;;1.05;0.90;;;;;;;5.91;61.72;95266.44;6164062;23;20016;-87
2024/03/06 15:14:41;;;;;;;1.20;1.10;;;;;;;6.03;61.89;95275.59;6139387;23;20020;-87
2024/03/06 15:17:06;;;;;;;1.17;1.05;;;;;;;6.02;62.04;95267.03;6163120;23;20011;-86
2024/03/06 15:45:13;;;;;;;3.20;2.53;;;;;;;5.88;61.65;95283.84;6243674;22;20024;-86
2024/03/06 15:47:41;;;;;;;3.00;2.20;;;;;;;5.94;61.77;95277.28;6193274;23;20015;-86
2024/03/06 15:50:09;;;;;;;1.27;1.13;;;;;;;5.76;61.94;95291.94;6218291;23;20004;-86
2024/03/06 15:52:35;;;;;;;1.00;0.90;;;;;;;5.61;62.11;95294.19;6193419;23;20004;-87
2024/03/06 15:55:01;;;;;;;0.82;0.82;;;;;;;5.53;61.68;95283.78;6193219;23;20008;-86
2024/03/06 15:57:27;;;;;;;1.02;0.90;;;;;;;5.68;61.53;95292.66;6217930;23;20014;-86
2024/03/06 15:59:52;;;;;;;1.15;0.80;;;;;;;5.44;62.59;95281.09;6182186;23;20009;-87
2024/03/06 16:02:18;;;;;;;1.00;0.80;;;;;;;5.55;62.46;95297.34;6157938;23;20021;-87
2024/03/06 16:04:44;;;;;;;0.95;0.90;;;;;;;5.68;62.03;95297.81;6158387;23;20001;-86
2024/03/06 16:07:12;;;;;;;1.15;0.80;;;;;;;5.61;61.76;95294.19;6133674;23;20009;-87
2024/03/06 16:17:28;;;;;;;1.30;0.70;;;;;;;5.74;62.04;95304.16;6249064;22;20094;-87
2024/03/06 16:29:55;;;;;;;0.70;0.70;;;;;;;5.25;62.58;95299.25;6216829;22;20009;-87
2024/03/06 16:32:21;;;;;;;0.70;0.70;;;;;;;4.94;63.96;95304.66;6187772;23;20034;-87
2024/03/06 16:34:48;;;;;;;0.60;0.60;;;;;;;4.97;63.88;95306.13;6163156;23;20008;-86
2024/03/06 16:37:14;;;;;;;1.00;0.80;;;;;;;5.29;62.09;95306.56;6163705;23;20004;-86
2024/03/06 16:42:07;;;;;;;1.40;0.90;;;;;;;5.27;62.56;95305.06;6213208;22;20024;-86
2024/03/06 16:44:33;;;;;;;1.20;0.90;;;;;;;5.45;61.92;95318.84;6187435;23;20047;-85
2024/03/06 16:57:00;;;;;;;0.88;0.80;;;;;;;5.19;62.95;95317.88;6183142;23;20029;-87
2024/03/06 16:59:26;;;;;;;1.77;1.00;;;;;;;5.19;62.28;95312.72;6157699;23;19997;-87
2024/03/06 17:01:51;;;;;;;1.10;1.00;;;;;;;5.03;62.99;95318.50;6157758;23;20035;-86
2024/03/06 17:04:17;;;;;;;1.15;1.05;;;;;;;4.95;63.01;95302.88;6158139;23;20095;-86
2024/03/06 17:06:42;;;;;;;1.20;1.08;;;;;;;4.96;63.24;95309.69;6157982;23;20041;-87
2024/03/06 17:09:07;;;;;;;1.50;1.20;;;;;;;4.88;63.37;95315.53;6157803;23;20036;-86
2024/03/06 17:11:33;;;;;;;1.42;1.10;;;;;;;4.69;64.17;95301.75;6132957;23;20013;-86
2024/03/06 17:13:59;;;;;;;1.50;1.20;;;;;;;4.54;64.63;95321.16;6157868;23;20059;-86
2024/03/06 17:16:24;;;;;;;2.03;1.60;;;;;;;4.59;64.50;95325.88;6157724;23;20016;-86
2024/03/06 17:21:15;;;;;;;2.00;1.70;;;;;;;4.92;63.53;95316.88;6181477;23;20013;-86
2024/03/06 17:26:16;;;;;;;2.00;1.60;;;;;;;5.23;62.11;95319.22;6213285;22;20025;-87
2024/03/06 17:28:42;;;;;;;2.10;1.80;;;;;;;5.21;62.93;95329.66;6138940;23;20008;-86
2024/03/06 17:33:33;;;;;;;2.85;2.00;;;;;;;5.30;62.20;95325.44;6226847;22;20055;-86
2024/03/06 17:36:01;;;;;;;2.60;1.95;;;;;;;5.26;62.54;95342.16;6164824;23;20070;-86
2024/03/06 17:38:27;;;;;;;2.92;2.25;;;;;;;5.40;61.78;95338.28;6189007;23;20015;-87
2024/03/06 17:40:57;;;;;;;3.95;2.42;;;;;;;5.39;62.25;95342.66;6140598;23;20012;-86
2024/03/06 17:43:22;;;;;;;4.25;3.60;;;;;;;5.42;61.67;95339.75;6189108;23;20008;-87
2024/03/06 17:56:02;;;;;;;3.20;2.33;;;;;;;4.68;64.39;95333.63;6214869;22;20027;-86
2024/03/06 18:00:53;;;;;;;2.77;2.00;;;;;;;4.99;63.07;95341.16;6214684;22;20021;-87
2024/03/06 18:03:20;;;;;;;2.65;2.05;;;;;;;4.87;63.83;95331.94;6187871;23;20241;-87
2024/03/06 18:13:24;;;;;;;2.60;2.22;;;;;;;4.94;63.65;95351.06;6218032;22;20016;-86
2024/03/06 18:15:52;;;;;;;3.40;2.28;;;;;;;5.02;64.04;95346.00;6188638;23;20017;-86
2024/03/06 18:18:19;;;;;;;2.70;2.20;;;;;;;5.07;63.14;95354.16;6188523;23;20012;-86
2024/03/06 18:20:47;;;;;;;3.03;2.40;;;;;;;4.90;63.66;95347.94;6164326;23;20027;-86
2024/03/06 18:23:12;;;;;;;4.20;2.50;;;;;;;4.91;64.15;95338.44;6188921;23;20024;-87
2024/03/06 18:28:04;;;;;;;3.15;2.25;;;;;;;5.06;63.69;95339.66;6180231;23;20009;-87
2024/03/06 18:30:30;;;;;;;3.10;2.38;;;;;;;5.19;62.96;95344.47;6154352;23;20009;-87
2024/03/06 18:32:58;;;;;;;3.88;2.70;;;;;;;5.35;62.85;95353.38;6129323;23;20033;-87
2024/03/06 18:35:24;;;;;;;3.58;2.70;;;;;;;5.08;63.82;95342.06;6154140;23;20041;-86
2024/03/06 18:40:17;;;;;;;3.60;2.50;;;;;;;4.90;64.04;95345.38;6213991;22;20103;-86
2024/03/06 18:52:56;;;;;;;2.42;1.98;;;;;;;4.98;64.05;95347.25;6216542;23;20016;-87
2024/03/06 18:55:22;;;;;;;3.47;2.30;;;;;;;5.11;63.52;95354.69;6193588;23;20046;-87
2024/03/06 19:00:13;;;;;;;3.20;2.03;;;;;;;4.86;64.39;95350.94;6244430;22;20024;-86
2024/03/06 19:02:41;;;;;;;2.88;2.00;;;;;;;4.76;64.81;95357.88;6193144;23;20004;-86
2024/03/06 19:05:07;;;;;;;2.97;2.00;;;;;;;5.07;63.65;95355.91;6218385;23;20012;-86
2024/03/06 19:07:33;;;;;;;2.67;1.88;;;;;;;5.09;63.52;95344.50;6218464;23;20133;-86
2024/03/06 19:10:00;;;;;;;2.65;1.83;;;;;;;5.11;63.23;95335.81;6168775;23;20027;-87
2024/03/06 19:12:25;;;;;;;2.65;1.70;;;;;;;5.11;63.58;95346.94;6194043;23;20054;-86
2024/03/06 19:14:51;;;;;;;2.08;1.60;;;;;;;5.22;63.19;95345.97;6217678;23;20015;-86
2024/03/06 19:24:52;;;;;;;3.45;2.10;;;;;;;5.26;62.67;95337.00;6243675;23;20028;-87
2024/03/06 19:27:22;;;;;;;2.85;2.08;;;;;;;5.27;63.09;95351.50;6218098;23;20004;-86
2024/03/06 19:29:49;;;;;;;2.92;2.35;;;;;;;5.14;64.02;95353.56;6170113;23;20019;-87
2024/03/06 19:32:15;;;;;;;3.83;2.65;;;;;;;5.26;63.47;95353.28;6218518;23;20004;-86
2024/03/06 19:34:40;;;;;;;3.80;2.70;;;;;;;5.35;63.13;95350.78;6218092;23;20004;-87
2024/03/06 19:37:07;;;;;;;3.65;2.60;;;;;;;5.37;62.81;95354.03;6218245;23;20000;-86
2024/03/06 19:39:33;;;;;;;5.00;3.30;;;;;;;5.28;63.38;95348.78;6181809;23;20006;-88
2024/03/06 19:42:05;;;;;;;4.50;3.00;;;;;;;5.17;63.15;95343.00;6158363;23;20048;-87
2024/03/06 19:44:30;;;;;;;5.05;3.20;;;;;;;5.33;62.74;95356.13;6158261;23;20059;-86
2024/03/06 19:46:56;;;;;;;5.35;3.70;;;;;;;5.08;63.59;95336.91;6157094;23;20013;-87
2024/03/06 19:49:21;;;;;;;6.72;4.22;;;;;;;5.17;63.69;95350.72;6157696;23;20001;-87
2024/03/06 19:54:22;;;;;;;5.78;3.97;;;;;;;5.19;63.59;95351.41;6237948;22;20025;-86
2024/03/06 19:59:18;;;;;;;6.40;4.20;;;;;;;5.07;63.55;95345.59;6192620;22;20032;-87
2024/03/06 20:01:44;;;;;;;5.47;3.92;;;;;;;5.28;63.03;95350.56;6157892;23;20035;-86
2024/03/06 20:06:37;;;;;;;7.88;4.70;;;;;;;4.99;63.62;95343.72;6229433;22;20024;-86
2024/03/06 20:09:04;;;;;;;8.77;4.85;;;;;;;5.13;63.63;95342.47;6193346;23;20012;-87
2024/03/06 20:11:29;;;;;;;7.00;4.65;;;;;;;4.83;64.59;95344.28;6218161;23;20008;-87
2024/03/06 20:13:55;;;;;;;6.75;4.38;;;;;;;4.87;64.83;95353.41;6218115;23;20003;-86
2024/03/06 20:16:20;;;;;;;7.45;4.63;;;;;;;4.94;63.68;95334.78;6218250;23;20012;-86
2024/03/06 20:18:46;;;;;;;6.47;4.28;;;;;;;5.14;62.96;95338.94;6217869;23;20039;-86
2024/03/06 20:39:14;;;;;;;5.40;3.53;;;;;;;5.12;63.31;95327.13;6244013;22;20023;-86
2024/03/06 20:41:42;;;;;;;5.22;3.53;;;;;;;5.42;62.27;95324.28;6217525;23;20016;-86
2024/03/06 20:44:07;;;;;;;5.65;3.47;;;;;;;5.19;63.45;95333.34;6217465;23;20012;-86
2024/03/06 20:46:32;;;;;;;5.35;3.50;;;;;;;5.16;62.58;95323.31;6217602;23;20019;-86
2024/03/06 20:48:58;;;;;;;5.60;3.80;;;;;;;5.40;62.41;95339.09;6192268;23;20019;-85
2024/03/06 20:53:48;;;;;;;4.70;3.20;;;;;;;5.82;61.20;95345.53;6245465;22;20019;-86
2024/03/06 20:56:14;;;;;;;5.38;4.03;;;;;;;5.68;61.42;95339.09;6217661;23;20067;-86
2024/03/06 20:58:39;;;;;;;4.82;3.38;;;;;;;5.21;62.71;95346.91;6217652;23;20082;-87
2024/03/06 21:01:06;;;;;;;5.00;3.42;;;;;;;4.98;63.45;95346.44;6192357;23;20061;-87
2024/03/06 21:03:37;;;;;;;6.32;3.65;;;;;;;4.88;65.06;95344.69;6218378;23;20004;-86
2024/03/06 21:06:03;;;;;;;5.53;3.50;;;;;;;5.22;63.54;95338.25;6172154;23;20079;-86
2024/03/06 21:10:58;;;;;;;5.28;3.53;;;;;;;5.43;62.24;95338.81;6185116;23;20088;-88
2024/03/06 21:31:22;;;;;;;5.78;3.60;;;;;;;5.09;63.87;95334.19;6215588;22;20028;-86
2024/03/06 21:38:48;;;;;;;4.82;3.28;;;;;;;5.34;62.51;95321.63;6218442;22;20024;-87